Aviation Digital Data Service (ADDS)

Output produced by METARs form (2151 UTC 01 December 2021)
found at http://aviationweather.gov/metar/data/
 
KSHV 012056Z 24011KT 10SM FEW040 25/13 A3004 RMK AO2 SLP169 T02500128 56020
KSHV 011720Z 0118/0218 21012G19KT P6SM SKC 
     FM020000 24005KT P6SM FEW250 
     FM020900 25004KT 6SM BR SKC 
     FM021200 VRB03KT P6SM SKC